sensor_id;sensor_type;location;lat;lon;timestamp;pressure;altitude;pressure_sealevel;temperature;humidity
64023;BME280;50264;52.088;5.296;2023-04-29T00:00:21;101430.0;;;10.49;97.25
64023;BME280;50264;52.088;5.296;2023-04-29T00:03:34;101434.0;;;10.41;98.01
64023;BME280;50264;52.088;5.296;2023-04-29T00:05:11;101437.0;;;10.44;98.09
64023;BME280;50264;52.088;5.296;2023-04-29T00:06:47;101440.0;;;10.39;98.09
64023;BME280;50264;52.088;5.296;2023-04-29T00:09:59;101440.0;;;10.35;98.34
64023;BME280;50264;52.088;5.296;2023-04-29T00:11:35;101442.0;;;10.43;98.04
64023;BME280;50264;52.088;5.296;2023-04-29T00:13:11;101448.0;;;10.5;97.61
64023;BME280;50264;52.088;5.296;2023-04-29T00:16:24;101447.0;;;10.48;98.03
64023;BME280;50264;52.088;5.296;2023-04-29T00:18:00;101446.0;;;10.46;98.01
64023;BME280;50264;52.088;5.296;2023-04-29T00:19:36;101449.0;;;10.51;97.67
64023;BME280;50264;52.088;5.296;2023-04-29T00:22:48;101452.0;;;10.53;97.83
64023;BME280;50264;52.088;5.296;2023-04-29T00:24:24;101449.0;;;10.5;97.23
64023;BME280;50264;52.088;5.296;2023-04-29T00:26:00;101453.0;;;10.38;97.26
64023;BME280;50264;52.088;5.296;2023-04-29T00:27:36;101456.0;;;10.45;97.88
64023;BME280;50264;52.088;5.296;2023-04-29T00:30:49;101460.0;;;10.51;97.48
64023;BME280;50264;52.088;5.296;2023-04-29T00:34:01;101470.0;;;10.51;97.38
64023;BME280;50264;52.088;5.296;2023-04-29T00:37:13;101469.0;;;10.45;97.31
64023;BME280;50264;52.088;5.296;2023-04-29T00:38:49;101465.0;;;10.44;97.32
64023;BME280;50264;52.088;5.296;2023-04-29T00:40:26;101467.0;;;10.32;96.99
64023;BME280;50264;52.088;5.296;2023-04-29T00:43:39;101469.0;;;10.46;97.55
64023;BME280;50264;52.088;5.296;2023-04-29T00:45:15;101470.0;;;10.35;96.83
64023;BME280;50264;52.088;5.296;2023-04-29T00:46:51;101467.0;;;10.36;98.34
64023;BME280;50264;52.088;5.296;2023-04-29T00:48:27;101468.0;;;10.39;97.6
64023;BME280;50264;52.088;5.296;2023-04-29T00:51:43;101468.0;;;10.4;97.06
64023;BME280;50264;52.088;5.296;2023-04-29T00:53:20;101470.0;;;10.45;97.32
64023;BME280;50264;52.088;5.296;2023-04-29T00:54:56;101473.0;;;10.48;97.36
64023;BME280;50264;52.088;5.296;2023-04-29T00:58:11;101473.0;;;10.52;97.13
64023;BME280;50264;52.088;5.296;2023-04-29T00:59:47;101475.0;;;10.45;96.89
64023;BME280;50264;52.088;5.296;2023-04-29T01:01:24;101475.0;;;10.51;96.61
64023;BME280;50264;52.088;5.296;2023-04-29T01:04:36;101474.0;;;10.52;96.76
64023;BME280;50264;52.088;5.296;2023-04-29T01:06:23;101478.0;;;10.52;97.43
64023;BME280;50264;52.088;5.296;2023-04-29T01:08:23;101478.0;;;10.52;96.6
64023;BME280;50264;52.088;5.296;2023-04-29T01:10:07;101476.0;;;10.46;97.16
64023;BME280;50264;52.088;5.296;2023-04-29T01:11:53;101480.0;;;10.44;96.63
64023;BME280;50264;52.088;5.296;2023-04-29T01:13:42;101488.0;;;10.5;96.39
64023;BME280;50264;52.088;5.296;2023-04-29T01:17:05;101489.0;;;10.43;96.46
64023;BME280;50264;52.088;5.296;2023-04-29T01:18:49;101488.0;;;10.41;95.79
64023;BME280;50264;52.088;5.296;2023-04-29T01:20:29;101495.0;;;10.45;95.67
64023;BME280;50264;52.088;5.296;2023-04-29T01:22:05;101494.0;;;10.42;95.77
64023;BME280;50264;52.088;5.296;2023-04-29T01:25:18;101497.0;;;10.41;95.61
64023;BME280;50264;52.088;5.296;2023-04-29T01:26:57;101496.0;;;10.38;95.77
64023;BME280;50264;52.088;5.296;2023-04-29T01:28:43;101498.0;;;10.32;96.16
64023;BME280;50264;52.088;5.296;2023-04-29T01:30:33;101495.0;;;10.3;96.17
64023;BME280;50264;52.088;5.296;2023-04-29T01:34:07;101499.0;;;10.38;95.15
64023;BME280;50264;52.088;5.296;2023-04-29T01:35:51;101505.0;;;10.33;95.17
64023;BME280;50264;52.088;5.296;2023-04-29T01:37:48;101506.0;;;10.3;95.79
64023;BME280;50264;52.088;5.296;2023-04-29T01:39:32;101511.0;;;10.34;95.04
64023;BME280;50264;52.088;5.296;2023-04-29T01:41:15;101512.0;;;10.31;95.53
64023;BME280;50264;52.088;5.296;2023-04-29T01:42:59;101513.0;;;10.33;96.21
64023;BME280;50264;52.088;5.296;2023-04-29T01:46:16;101520.0;;;10.43;95.95
64023;BME280;50264;52.088;5.296;2023-04-29T01:47:52;101517.0;;;10.43;95.54
64023;BME280;50264;52.088;5.296;2023-04-29T01:49:29;101523.0;;;10.47;95.12
64023;BME280;50264;52.088;5.296;2023-04-29T01:52:41;101522.0;;;10.5;95.78
64023;BME280;50264;52.088;5.296;2023-04-29T01:54:17;101524.0;;;10.59;94.74
64023;BME280;50264;52.088;5.296;2023-04-29T01:55:53;101520.0;;;10.49;94.07
64023;BME280;50264;52.088;5.296;2023-04-29T01:57:30;101519.0;;;10.51;94.79
64023;BME280;50264;52.088;5.296;2023-04-29T02:00:42;101521.0;;;10.47;95.14
64023;BME280;50264;52.088;5.296;2023-04-29T02:02:18;101524.0;;;10.43;95.16
64023;BME280;50264;52.088;5.296;2023-04-29T02:03:54;101523.0;;;10.42;95.04
64023;BME280;50264;52.088;5.296;2023-04-29T02:07:06;101521.0;;;10.46;94.88
64023;BME280;50264;52.088;5.296;2023-04-29T02:08:42;101524.0;;;10.39;95.91
64023;BME280;50264;52.088;5.296;2023-04-29T02:10:19;101524.0;;;10.41;95.23
64023;BME280;50264;52.088;5.296;2023-04-29T02:13:31;101531.0;;;10.39;95.71
64023;BME280;50264;52.088;5.296;2023-04-29T02:15:08;101533.0;;;10.29;95.2
64023;BME280;50264;52.088;5.296;2023-04-29T02:16:43;101531.0;;;10.26;96.06
64023;BME280;50264;52.088;5.296;2023-04-29T02:19:55;101535.0;;;10.3;96.76
64023;BME280;50264;52.088;5.296;2023-04-29T02:21:30;101536.0;;;10.33;96.06
64023;BME280;50264;52.088;5.296;2023-04-29T02:23:06;101538.0;;;10.37;96.59
64023;BME280;50264;52.088;5.296;2023-04-29T02:24:42;101541.0;;;10.29;96.1
64023;BME280;50264;52.088;5.296;2023-04-29T02:27:55;101548.0;;;10.31;95.94
64023;BME280;50264;52.088;5.296;2023-04-29T02:29:31;101546.0;;;10.29;95.59
64023;BME280;50264;52.088;5.296;2023-04-29T02:31:08;101550.0;;;10.28;95.8
64023;BME280;50264;52.088;5.296;2023-04-29T02:34:20;101551.0;;;10.32;96.65
64023;BME280;50264;52.088;5.296;2023-04-29T02:35:56;101555.0;;;10.34;96.16
64023;BME280;50264;52.088;5.296;2023-04-29T02:37:32;101559.0;;;10.34;95.87
64023;BME280;50264;52.088;5.296;2023-04-29T02:40:45;101557.0;;;10.39;95.86
64023;BME280;50264;52.088;5.296;2023-04-29T02:42:21;101561.0;;;10.31;97.08
64023;BME280;50264;52.088;5.296;2023-04-29T02:43:57;101569.0;;;10.35;96.33
64023;BME280;50264;52.088;5.296;2023-04-29T02:47:10;101570.0;;;10.39;96.09
64023;BME280;50264;52.088;5.296;2023-04-29T02:48:46;101568.0;;;10.39;96.13
64023;BME280;50264;52.088;5.296;2023-04-29T02:50:22;101567.0;;;10.39;95.59
64023;BME280;50264;52.088;5.296;2023-04-29T02:51:58;101572.0;;;10.44;95.81
64023;BME280;50264;52.088;5.296;2023-04-29T02:55:10;101572.0;;;10.41;95.62
64023;BME280;50264;52.088;5.296;2023-04-29T02:56:46;101575.0;;;10.43;94.92
64023;BME280;50264;52.088;5.296;2023-04-29T02:58:23;101580.0;;;10.46;95.62
64023;BME280;50264;52.088;5.296;2023-04-29T03:01:35;101576.0;;;10.41;95.53
64023;BME280;50264;52.088;5.296;2023-04-29T03:03:12;101578.0;;;10.45;95.39
64023;BME280;50264;52.088;5.296;2023-04-29T03:04:48;101580.0;;;10.39;96.3
64023;BME280;50264;52.088;5.296;2023-04-29T03:08:00;101580.0;;;10.4;97.12
64023;BME280;50264;52.088;5.296;2023-04-29T03:09:36;101585.0;;;10.39;96.26
64023;BME280;50264;52.088;5.296;2023-04-29T03:11:12;101589.0;;;10.42;96.36
64023;BME280;50264;52.088;5.296;2023-04-29T03:12:49;101592.0;;;10.48;96.26
64023;BME280;50264;52.088;5.296;2023-04-29T03:16:01;101594.0;;;10.41;95.86
64023;BME280;50264;52.088;5.296;2023-04-29T03:17:37;101597.0;;;10.48;96.12
64023;BME280;50264;52.088;5.296;2023-04-29T03:19:13;101595.0;;;10.46;95.9
64023;BME280;50264;52.088;5.296;2023-04-29T03:22:25;101603.0;;;10.42;96.22
64023;BME280;50264;52.088;5.296;2023-04-29T03:24:01;101605.0;;;10.43;96.29
64023;BME280;50264;52.088;5.296;2023-04-29T03:25:37;101600.0;;;10.52;96.09
64023;BME280;50264;52.088;5.296;2023-04-29T03:28:50;101605.0;;;10.38;95.96
64023;BME280;50264;52.088;5.296;2023-04-29T03:30:26;101603.0;;;10.47;95.94
64023;BME280;50264;52.088;5.296;2023-04-29T03:32:02;101608.0;;;10.49;96.41
64023;BME280;50264;52.088;5.296;2023-04-29T03:35:14;101608.0;;;10.56;96.09
64023;BME280;50264;52.088;5.296;2023-04-29T03:36:50;101610.0;;;10.42;97.12
64023;BME280;50264;52.088;5.296;2023-04-29T03:38:26;101608.0;;;10.36;97.37
64023;BME280;50264;52.088;5.296;2023-04-29T03:40:03;101612.0;;;10.38;96.97
64023;BME280;50264;52.088;5.296;2023-04-29T03:43:16;101608.0;;;10.38;97.38
64023;BME280;50264;52.088;5.296;2023-04-29T03:44:52;101612.0;;;10.35;96.55
64023;BME280;50264;52.088;5.296;2023-04-29T03:46:28;101619.0;;;10.35;97.39
64023;BME280;50264;52.088;5.296;2023-04-29T03:49:41;101615.0;;;10.31;97.19
64023;BME280;50264;52.088;5.296;2023-04-29T03:51:17;101620.0;;;10.36;97.17
64023;BME280;50264;52.088;5.296;2023-04-29T03:52:53;101622.0;;;10.36;96.62
64023;BME280;50264;52.088;5.296;2023-04-29T03:56:06;101621.0;;;10.28;97.53
64023;BME280;50264;52.088;5.296;2023-04-29T03:57:42;101623.0;;;10.25;98.06
64023;BME280;50264;52.088;5.296;2023-04-29T03:59:18;101621.0;;;10.19;98.05
64023;BME280;50264;52.088;5.296;2023-04-29T04:00:54;101624.0;;;10.25;98.29
64023;BME280;50264;52.088;5.296;2023-04-29T04:04:06;101630.0;;;10.26;98.15
64023;BME280;50264;52.088;5.296;2023-04-29T04:05:42;101627.0;;;10.23;98.08
64023;BME280;50264;52.088;5.296;2023-04-29T04:07:18;101630.0;;;10.24;98.12
64023;BME280;50264;52.088;5.296;2023-04-29T04:10:31;101631.0;;;10.29;98.14
64023;BME280;50264;52.088;5.296;2023-04-29T04:12:08;101633.0;;;10.28;98.35
64023;BME280;50264;52.088;5.296;2023-04-29T04:13:44;101631.0;;;10.25;98.29
64023;BME280;50264;52.088;5.296;2023-04-29T04:16:56;101631.0;;;10.26;98.35
64023;BME280;50264;52.088;5.296;2023-04-29T04:18:32;101636.0;;;10.27;98.34
64023;BME280;50264;52.088;5.296;2023-04-29T04:20:09;101639.0;;;10.31;97.77
64023;BME280;50264;52.088;5.296;2023-04-29T04:23:22;101645.0;;;10.45;96.91
64023;BME280;50264;52.088;5.296;2023-04-29T04:24:58;101646.0;;;10.48;96.33
64023;BME280;50264;52.088;5.296;2023-04-29T04:26:34;101649.0;;;10.48;95.41
64023;BME280;50264;52.088;5.296;2023-04-29T04:28:10;101644.0;;;10.45;95.39
64023;BME280;50264;52.088;5.296;2023-04-29T04:31:22;101651.0;;;10.45;93.51
64023;BME280;50264;52.088;5.296;2023-04-29T04:32:59;101652.0;;;10.46;94.43
64023;BME280;50264;52.088;5.296;2023-04-29T04:34:36;101660.0;;;10.48;93.65
64023;BME280;50264;52.088;5.296;2023-04-29T04:37:48;101655.0;;;10.46;93.32
64023;BME280;50264;52.088;5.296;2023-04-29T04:39:24;101658.0;;;10.49;91.81
64023;BME280;50264;52.088;5.296;2023-04-29T04:41:00;101662.0;;;10.55;90.13
64023;BME280;50264;52.088;5.296;2023-04-29T04:44:12;101667.0;;;10.54;91.5
64023;BME280;50264;52.088;5.296;2023-04-29T04:45:48;101667.0;;;10.52;90.76
64023;BME280;50264;52.088;5.296;2023-04-29T04:47:24;101671.0;;;10.55;90.85
64023;BME280;50264;52.088;5.296;2023-04-29T04:49:01;101680.0;;;10.56;90.78
64023;BME280;50264;52.088;5.296;2023-04-29T04:52:13;101680.0;;;10.56;91.8
64023;BME280;50264;52.088;5.296;2023-04-29T04:53:49;101685.0;;;10.51;91.88
64023;BME280;50264;52.088;5.296;2023-04-29T04:55:25;101685.0;;;10.56;91.77
64023;BME280;50264;52.088;5.296;2023-04-29T04:58:37;101689.0;;;10.54;91.42
64023;BME280;50264;52.088;5.296;2023-04-29T05:00:15;101692.0;;;10.57;90.99
64023;BME280;50264;52.088;5.296;2023-04-29T05:01:51;101699.0;;;10.48;88.27
64023;BME280;50264;52.088;5.296;2023-04-29T05:05:04;101700.0;;;10.6;88.51
64023;BME280;50264;52.088;5.296;2023-04-29T05:08:16;101709.0;;;10.54;90.21
64023;BME280;50264;52.088;5.296;2023-04-29T05:11:28;101707.0;;;10.54;90.2
64023;BME280;50264;52.088;5.296;2023-04-29T05:13:04;101713.0;;;10.52;90.39
64023;BME280;50264;52.088;5.296;2023-04-29T05:14:40;101717.0;;;10.57;90.65
64023;BME280;50264;52.088;5.296;2023-04-29T05:16:17;101715.0;;;10.59;90.93
64023;BME280;50264;52.088;5.296;2023-04-29T05:19:29;101713.0;;;10.57;90.82
64023;BME280;50264;52.088;5.296;2023-04-29T05:21:05;101711.0;;;10.58;91.04
64023;BME280;50264;52.088;5.296;2023-04-29T05:22:41;101709.0;;;10.68;90.49
64023;BME280;50264;52.088;5.296;2023-04-29T05:25:53;101714.0;;;10.62;91.17
64023;BME280;50264;52.088;5.296;2023-04-29T05:27:29;101718.0;;;10.66;89.97
64023;BME280;50264;52.088;5.296;2023-04-29T05:29:05;101719.0;;;10.74;90.68
64023;BME280;50264;52.088;5.296;2023-04-29T05:32:18;101717.0;;;10.75;90.14
64023;BME280;50264;52.088;5.296;2023-04-29T05:33:54;101724.0;;;10.77;90.21
64023;BME280;50264;52.088;5.296;2023-04-29T05:35:30;101731.0;;;10.75;90.13
64023;BME280;50264;52.088;5.296;2023-04-29T05:38:42;101734.0;;;10.75;90.74
64023;BME280;50264;52.088;5.296;2023-04-29T05:40:19;101730.0;;;10.82;90.36
64023;BME280;50264;52.088;5.296;2023-04-29T05:41:55;101731.0;;;10.97;90.32
64023;BME280;50264;52.088;5.296;2023-04-29T05:43:32;101734.0;;;10.95;90.04
64023;BME280;50264;52.088;5.296;2023-04-29T05:46:45;101736.0;;;10.95;89.91
64023;BME280;50264;52.088;5.296;2023-04-29T05:48:21;101741.0;;;10.98;90.01
64023;BME280;50264;52.088;5.296;2023-04-29T05:49:58;101743.0;;;11.0;89.48
64023;BME280;50264;52.088;5.296;2023-04-29T05:53:10;101743.0;;;11.01;88.31
64023;BME280;50264;52.088;5.296;2023-04-29T05:54:46;101748.0;;;11.03;89.93
64023;BME280;50264;52.088;5.296;2023-04-29T05:56:23;101752.0;;;11.1;88.65
64023;BME280;50264;52.088;5.296;2023-04-29T05:59:35;101751.0;;;11.0;88.1
64023;BME280;50264;52.088;5.296;2023-04-29T06:01:11;101755.0;;;11.13;88.61
64023;BME280;50264;52.088;5.296;2023-04-29T06:02:47;101764.0;;;11.11;87.25
64023;BME280;50264;52.088;5.296;2023-04-29T06:04:23;101768.0;;;11.08;89.52
64023;BME280;50264;52.088;5.296;2023-04-29T06:07:38;101769.0;;;11.12;87.35
64023;BME280;50264;52.088;5.296;2023-04-29T06:09:15;101774.0;;;11.18;88.82
64023;BME280;50264;52.088;5.296;2023-04-29T06:10:51;101776.0;;;11.19;89.31
64023;BME280;50264;52.088;5.296;2023-04-29T06:14:03;101778.0;;;11.25;88.99
64023;BME280;50264;52.088;5.296;2023-04-29T06:15:39;101782.0;;;11.29;88.24
64023;BME280;50264;52.088;5.296;2023-04-29T06:17:15;101788.0;;;11.33;89.74
64023;BME280;50264;52.088;5.296;2023-04-29T06:20:27;101787.0;;;11.26;88.04
64023;BME280;50264;52.088;5.296;2023-04-29T06:22:04;101786.0;;;11.31;89.03
64023;BME280;50264;52.088;5.296;2023-04-29T06:23:40;101788.0;;;11.33;88.5
64023;BME280;50264;52.088;5.296;2023-04-29T06:25:16;101788.0;;;11.39;89.54
64023;BME280;50264;52.088;5.296;2023-04-29T06:28:28;101792.0;;;11.38;89.9
64023;BME280;50264;52.088;5.296;2023-04-29T06:30:05;101800.0;;;11.47;89.18
64023;BME280;50264;52.088;5.296;2023-04-29T06:31:42;101805.0;;;11.47;89.56
64023;BME280;50264;52.088;5.296;2023-04-29T06:34:54;101802.0;;;11.59;89.65
64023;BME280;50264;52.088;5.296;2023-04-29T06:36:31;101810.0;;;11.55;88.83
64023;BME280;50264;52.088;5.296;2023-04-29T06:38:07;101811.0;;;11.47;89.3
64023;BME280;50264;52.088;5.296;2023-04-29T06:41:19;101816.0;;;11.57;88.23
64023;BME280;50264;52.088;5.296;2023-04-29T06:42:55;101822.0;;;11.61;87.5
64023;BME280;50264;52.088;5.296;2023-04-29T06:44:31;101826.0;;;11.63;87.62
64023;BME280;50264;52.088;5.296;2023-04-29T06:47:44;101827.0;;;11.69;87.91
64023;BME280;50264;52.088;5.296;2023-04-29T06:49:21;101830.0;;;11.79;88.12
64023;BME280;50264;52.088;5.296;2023-04-29T06:50:57;101838.0;;;11.74;86.74
64023;BME280;50264;52.088;5.296;2023-04-29T06:52:33;101837.0;;;11.88;86.78
64023;BME280;50264;52.088;5.296;2023-04-29T06:55:45;101840.0;;;11.84;84.62
64023;BME280;50264;52.088;5.296;2023-04-29T06:57:21;101842.0;;;11.93;85.97
64023;BME280;50264;52.088;5.296;2023-04-29T06:58:57;101848.0;;;11.81;84.21
64023;BME280;50264;52.088;5.296;2023-04-29T07:02:10;101841.0;;;11.81;84.06
64023;BME280;50264;52.088;5.296;2023-04-29T07:03:46;101843.0;;;11.89;84.57
64023;BME280;50264;52.088;5.296;2023-04-29T07:05:22;101846.0;;;11.97;84.17
64023;BME280;50264;52.088;5.296;2023-04-29T07:08:34;101844.0;;;12.09;85.54
64023;BME280;50264;52.088;5.296;2023-04-29T07:10:10;101851.0;;;12.11;84.17
64023;BME280;50264;52.088;5.296;2023-04-29T07:11:46;101858.0;;;12.08;82.64
64023;BME280;50264;52.088;5.296;2023-04-29T07:13:23;101855.0;;;12.14;81.69
64023;BME280;50264;52.088;5.296;2023-04-29T07:16:36;101859.0;;;12.19;85.87
64023;BME280;50264;52.088;5.296;2023-04-29T07:18:12;101867.0;;;12.21;83.67
64023;BME280;50264;52.088;5.296;2023-04-29T07:19:48;101871.0;;;12.29;82.9
64023;BME280;50264;52.088;5.296;2023-04-29T07:23:01;101877.0;;;12.34;81.56
64023;BME280;50264;52.088;5.296;2023-04-29T07:24:37;101883.0;;;12.41;83.45
64023;BME280;50264;52.088;5.296;2023-04-29T07:26:15;101881.0;;;12.35;81.55
64023;BME280;50264;52.088;5.296;2023-04-29T07:29:28;101886.0;;;12.3;83.16
64023;BME280;50264;52.088;5.296;2023-04-29T07:31:04;101890.0;;;12.31;81.52
64023;BME280;50264;52.088;5.296;2023-04-29T07:32:40;101891.0;;;12.28;82.99
64023;BME280;50264;52.088;5.296;2023-04-29T07:35:52;101897.0;;;12.31;82.25
64023;BME280;50264;52.088;5.296;2023-04-29T07:37:29;101895.0;;;12.28;82.22
64023;BME280;50264;52.088;5.296;2023-04-29T07:39:05;101901.0;;;12.21;81.96
64023;BME280;50264;52.088;5.296;2023-04-29T07:43:54;101900.0;;;12.4;84.61
64023;BME280;50264;52.088;5.296;2023-04-29T07:45:30;101900.0;;;12.41;83.66
64023;BME280;50264;52.088;5.296;2023-04-29T07:47:06;101906.0;;;12.41;80.77
64023;BME280;50264;52.088;5.296;2023-04-29T07:50:19;101906.0;;;12.44;82.08
64023;BME280;50264;52.088;5.296;2023-04-29T07:51:56;101909.0;;;12.45;81.73
64023;BME280;50264;52.088;5.296;2023-04-29T07:53:32;101912.0;;;12.52;81.19
64023;BME280;50264;52.088;5.296;2023-04-29T07:56:44;101916.0;;;12.42;81.81
64023;BME280;50264;52.088;5.296;2023-04-29T07:58:20;101916.0;;;12.34;81.33
64023;BME280;50264;52.088;5.296;2023-04-29T07:59:56;101918.0;;;12.35;80.16
64023;BME280;50264;52.088;5.296;2023-04-29T08:01:32;101921.0;;;12.43;79.59
64023;BME280;50264;52.088;5.296;2023-04-29T08:04:44;101921.0;;;12.41;80.39
64023;BME280;50264;52.088;5.296;2023-04-29T08:06:21;101927.0;;;12.4;81.56
64023;BME280;50264;52.088;5.296;2023-04-29T08:07:57;101927.0;;;12.4;80.28
64023;BME280;50264;52.088;5.296;2023-04-29T08:11:14;101927.0;;;12.49;76.59
64023;BME280;50264;52.088;5.296;2023-04-29T08:12:51;101924.0;;;12.59;79.77
64023;BME280;50264;52.088;5.296;2023-04-29T08:14:27;101926.0;;;12.74;77.95
64023;BME280;50264;52.088;5.296;2023-04-29T08:17:39;101930.0;;;12.84;77.97
64023;BME280;50264;52.088;5.296;2023-04-29T08:19:16;101933.0;;;12.88;78.86
64023;BME280;50264;52.088;5.296;2023-04-29T08:20:52;101933.0;;;12.93;77.33
64023;BME280;50264;52.088;5.296;2023-04-29T08:22:28;101935.0;;;12.87;78.16
64023;BME280;50264;52.088;5.296;2023-04-29T08:25:41;101935.0;;;12.94;79.17
64023;BME280;50264;52.088;5.296;2023-04-29T08:27:17;101932.0;;;13.06;78.45
64023;BME280;50264;52.088;5.296;2023-04-29T08:28:53;101928.0;;;12.96;76.17
64023;BME280;50264;52.088;5.296;2023-04-29T08:32:06;101934.0;;;12.98;77.03
64023;BME280;50264;52.088;5.296;2023-04-29T08:33:42;101938.0;;;13.07;76.92
64023;BME280;50264;52.088;5.296;2023-04-29T08:35:18;101935.0;;;13.01;76.67
64023;BME280;50264;52.088;5.296;2023-04-29T08:38:32;101934.0;;;13.04;77.14
64023;BME280;50264;52.088;5.296;2023-04-29T08:40:09;101938.0;;;12.87;74.72
64023;BME280;50264;52.088;5.296;2023-04-29T08:41:45;101940.0;;;12.9;75.05
64023;BME280;50264;52.088;5.296;2023-04-29T08:43:21;101937.0;;;12.98;76.12
64023;BME280;50264;52.088;5.296;2023-04-29T08:46:37;101941.0;;;12.97;74.06
64023;BME280;50264;52.088;5.296;2023-04-29T08:48:15;101938.0;;;13.01;75.66
64023;BME280;50264;52.088;5.296;2023-04-29T08:49:52;101946.0;;;13.09;75.3
64023;BME280;50264;52.088;5.296;2023-04-29T08:53:04;101952.0;;;13.11;76.11
64023;BME280;50264;52.088;5.296;2023-04-29T08:54:40;101953.0;;;13.03;73.74
64023;BME280;50264;52.088;5.296;2023-04-29T08:56:17;101958.0;;;13.16;74.47
64023;BME280;50264;52.088;5.296;2023-04-29T08:59:31;101955.0;;;13.05;76.48
64023;BME280;50264;52.088;5.296;2023-04-29T09:01:07;101948.0;;;13.05;73.47
64023;BME280;50264;52.088;5.296;2023-04-29T09:02:47;101948.0;;;13.17;74.06
64023;BME280;50264;52.088;5.296;2023-04-29T09:04:33;101950.0;;;13.49;74.66
64023;BME280;50264;52.088;5.296;2023-04-29T09:07:52;101952.0;;;13.77;75.55
64023;BME280;50264;52.088;5.296;2023-04-29T09:09:32;101955.0;;;13.92;71.64
64023;BME280;50264;52.088;5.296;2023-04-29T09:11:09;101964.0;;;14.04;72.53
64023;BME280;50264;52.088;5.296;2023-04-29T09:12:45;101959.0;;;14.2;70.8
64023;BME280;50264;52.088;5.296;2023-04-29T09:15:58;101966.0;;;14.5;75.12
64023;BME280;50264;52.088;5.296;2023-04-29T09:17:38;101974.0;;;14.61;69.97
64023;BME280;50264;52.088;5.296;2023-04-29T09:19:28;101969.0;;;14.47;66.83
64023;BME280;50264;52.088;5.296;2023-04-29T09:21:12;101971.0;;;14.58;69.02
64023;BME280;50264;52.088;5.296;2023-04-29T09:24:28;101970.0;;;14.6;68.3
64023;BME280;50264;52.088;5.296;2023-04-29T09:26:05;101973.0;;;14.78;68.2
64023;BME280;50264;52.088;5.296;2023-04-29T09:27:41;101981.0;;;14.87;65.83
64023;BME280;50264;52.088;5.296;2023-04-29T09:30:53;101985.0;;;14.75;65.23
64023;BME280;50264;52.088;5.296;2023-04-29T09:32:29;101985.0;;;14.6;64.86
64023;BME280;50264;52.088;5.296;2023-04-29T09:34:05;101984.0;;;14.82;66.87
64023;BME280;50264;52.088;5.296;2023-04-29T09:35:42;101987.0;;;14.94;66.58
64023;BME280;50264;52.088;5.296;2023-04-29T09:39:00;101991.0;;;14.55;61.68
64023;BME280;50264;52.088;5.296;2023-04-29T09:40:37;101986.0;;;14.71;65.58
64023;BME280;50264;52.088;5.296;2023-04-29T09:42:13;101989.0;;;14.94;65.67
64023;BME280;50264;52.088;5.296;2023-04-29T09:45:39;101981.0;;;14.84;61.61
64023;BME280;50264;52.088;5.296;2023-04-29T09:47:16;101992.0;;;15.15;67.66
64023;BME280;50264;52.088;5.296;2023-04-29T09:48:52;101994.0;;;15.16;62.21
64023;BME280;50264;52.088;5.296;2023-04-29T09:50:28;101996.0;;;15.39;62.18
64023;BME280;50264;52.088;5.296;2023-04-29T09:53:42;101996.0;;;15.45;61.26
64023;BME280;50264;52.088;5.296;2023-04-29T09:55:18;101994.0;;;15.3;61.7
64023;BME280;50264;52.088;5.296;2023-04-29T09:56:56;101990.0;;;15.44;61.83
64023;BME280;50264;52.088;5.296;2023-04-29T10:00:11;101991.0;;;15.46;59.7
64023;BME280;50264;52.088;5.296;2023-04-29T10:01:48;101991.0;;;15.6;62.64
64023;BME280;50264;52.088;5.296;2023-04-29T10:03:26;101990.0;;;15.78;62.89
64023;BME280;50264;52.088;5.296;2023-04-29T10:05:07;101987.0;;;15.68;60.18
64023;BME280;50264;52.088;5.296;2023-04-29T10:08:23;101987.0;;;15.87;59.61
64023;BME280;50264;52.088;5.296;2023-04-29T10:10:03;101987.0;;;15.74;58.68
64023;BME280;50264;52.088;5.296;2023-04-29T10:11:41;101987.0;;;15.71;61.99
64023;BME280;50264;52.088;5.296;2023-04-29T10:13:18;101987.0;;;15.76;62.52
64023;BME280;50264;52.088;5.296;2023-04-29T10:16:44;101990.0;;;15.83;58.74
64023;BME280;50264;52.088;5.296;2023-04-29T10:18:26;101986.0;;;15.87;58.08
64023;BME280;50264;52.088;5.296;2023-04-29T10:20:05;101992.0;;;15.91;56.45
64023;BME280;50264;52.088;5.296;2023-04-29T10:21:46;101989.0;;;16.15;58.49
64023;BME280;50264;52.088;5.296;2023-04-29T10:25:03;101992.0;;;16.13;56.05
64023;BME280;50264;52.088;5.296;2023-04-29T10:26:42;101992.0;;;16.03;56.27
64023;BME280;50264;52.088;5.296;2023-04-29T10:28:20;101987.0;;;16.18;58.81
64023;BME280;50264;52.088;5.296;2023-04-29T10:31:40;101996.0;;;16.18;57.92
64023;BME280;50264;52.088;5.296;2023-04-29T10:33:16;101997.0;;;16.29;58.97
64023;BME280;50264;52.088;5.296;2023-04-29T10:34:54;102005.0;;;16.2;58.34
64023;BME280;50264;52.088;5.296;2023-04-29T10:36:32;101998.0;;;16.37;57.76
64023;BME280;50264;52.088;5.296;2023-04-29T10:40:00;102001.0;;;16.61;61.36
64023;BME280;50264;52.088;5.296;2023-04-29T10:41:47;102002.0;;;16.62;60.35
64023;BME280;50264;52.088;5.296;2023-04-29T10:45:34;102011.0;;;16.28;55.37
64023;BME280;50264;52.088;5.296;2023-04-29T10:47:18;102007.0;;;16.45;57.95
64023;BME280;50264;52.088;5.296;2023-04-29T10:48:57;102011.0;;;16.61;59.95
64023;BME280;50264;52.088;5.296;2023-04-29T10:52:50;102005.0;;;16.77;54.7
64023;BME280;50264;52.088;5.296;2023-04-29T10:54:27;102005.0;;;17.02;56.53
64023;BME280;50264;52.088;5.296;2023-04-29T10:56:07;102001.0;;;17.13;54.01
64023;BME280;50264;52.088;5.296;2023-04-29T10:57:44;101995.0;;;17.04;56.91
64023;BME280;50264;52.088;5.296;2023-04-29T10:59:21;101995.0;;;17.16;55.8
64023;BME280;50264;52.088;5.296;2023-04-29T11:03:45;101996.0;;;17.37;54.45
64023;BME280;50264;52.088;5.296;2023-04-29T11:05:29;102001.0;;;17.18;55.11
64023;BME280;50264;52.088;5.296;2023-04-29T11:07:06;101996.0;;;17.38;54.86
64023;BME280;50264;52.088;5.296;2023-04-29T11:08:42;101993.0;;;17.16;53.57
64023;BME280;50264;52.088;5.296;2023-04-29T11:10:18;101996.0;;;17.36;57.88
64023;BME280;50264;52.088;5.296;2023-04-29T11:11:59;101999.0;;;17.29;52.26
64023;BME280;50264;52.088;5.296;2023-04-29T11:15:16;102003.0;;;17.45;56.72